sensor_id;sensor_type;location;lat;lon;timestamp;temperature;humidity
10911;DHT22;5508;49.150;11.030;2022-11-21T00:01:20;3.40;99.90
10911;DHT22;5508;49.150;11.030;2022-11-21T00:04:21;3.30;99.90
10911;DHT22;5508;49.150;11.030;2022-11-21T00:07:22;3.30;99.90
10911;DHT22;5508;49.150;11.030;2022-11-21T00:10:23;3.30;99.90
10911;DHT22;5508;49.150;11.030;2022-11-21T00:13:24;3.30;99.90
10911;DHT22;5508;49.150;11.030;2022-11-21T00:16:25;3.40;99.90
10911;DHT22;5508;49.150;11.030;2022-11-21T00:19:26;3.40;99.90
10911;DHT22;5508;49.150;11.030;2022-11-21T00:22:26;3.30;99.90
10911;DHT22;5508;49.150;11.030;2022-11-21T00:25:27;3.40;99.90
10911;DHT22;5508;49.150;11.030;2022-11-21T00:28:27;3.40;99.90
10911;DHT22;5508;49.150;11.030;2022-11-21T00:31:28;3.50;99.90
10911;DHT22;5508;49.150;11.030;2022-11-21T00:34:28;3.50;99.90
10911;DHT22;5508;49.150;11.030;2022-11-21T00:37:31;3.50;99.90
10911;DHT22;5508;49.150;11.030;2022-11-21T00:40:31;3.50;99.90
10911;DHT22;5508;49.150;11.030;2022-11-21T00:43:32;3.50;99.90
10911;DHT22;5508;49.150;11.030;2022-11-21T00:46:33;3.60;99.90
10911;DHT22;5508;49.150;11.030;2022-11-21T00:49:33;3.50;99.90
10911;DHT22;5508;49.150;11.030;2022-11-21T00:52:34;3.40;99.90
10911;DHT22;5508;49.150;11.030;2022-11-21T00:55:34;3.40;99.90
10911;DHT22;5508;49.150;11.030;2022-11-21T00:58:36;3.40;99.90
10911;DHT22;5508;49.150;11.030;2022-11-21T01:01:37;3.40;99.90
10911;DHT22;5508;49.150;11.030;2022-11-21T01:04:37;3.30;99.90
10911;DHT22;5508;49.150;11.030;2022-11-21T01:07:38;3.30;99.90
10911;DHT22;5508;49.150;11.030;2022-11-21T01:10:38;3.40;99.90
10911;DHT22;5508;49.150;11.030;2022-11-21T01:13:40;3.40;99.90
10911;DHT22;5508;49.150;11.030;2022-11-21T01:16:41;3.40;99.90
10911;DHT22;5508;49.150;11.030;2022-11-21T01:19:42;3.30;99.90
10911;DHT22;5508;49.150;11.030;2022-11-21T01:22:42;3.30;99.90
10911;DHT22;5508;49.150;11.030;2022-11-21T01:25:43;3.20;99.90
10911;DHT22;5508;49.150;11.030;2022-11-21T01:28:44;3.20;99.90
10911;DHT22;5508;49.150;11.030;2022-11-21T01:31:44;3.10;99.90
10911;DHT22;5508;49.150;11.030;2022-11-21T01:34:45;3.10;99.90
10911;DHT22;5508;49.150;11.030;2022-11-21T01:37:47;3.10;99.90
10911;DHT22;5508;49.150;11.030;2022-11-21T01:40:47;3.10;99.90
10911;DHT22;5508;49.150;11.030;2022-11-21T01:43:48;3.10;99.90
10911;DHT22;5508;49.150;11.030;2022-11-21T01:46:51;3.10;99.90
10911;DHT22;5508;49.150;11.030;2022-11-21T01:49:52;3.10;99.90
10911;DHT22;5508;49.150;11.030;2022-11-21T01:52:53;3.20;99.90
10911;DHT22;5508;49.150;11.030;2022-11-21T01:55:53;3.20;99.90
10911;DHT22;5508;49.150;11.030;2022-11-21T01:58:56;3.30;99.90
10911;DHT22;5508;49.150;11.030;2022-11-21T02:01:59;3.30;99.90
10911;DHT22;5508;49.150;11.030;2022-11-21T02:05:04;3.30;99.90
10911;DHT22;5508;49.150;11.030;2022-11-21T02:08:09;3.30;99.90
10911;DHT22;5508;49.150;11.030;2022-11-21T02:11:34;3.40;99.90
10911;DHT22;5508;49.150;11.030;2022-11-21T02:14:37;3.50;99.90
10911;DHT22;5508;49.150;11.030;2022-11-21T02:17:39;3.50;99.90
10911;DHT22;5508;49.150;11.030;2022-11-21T02:20:45;3.60;99.90
10911;DHT22;5508;49.150;11.030;2022-11-21T02:24:02;3.60;99.90
10911;DHT22;5508;49.150;11.030;2022-11-21T02:27:04;3.60;99.90
10911;DHT22;5508;49.150;11.030;2022-11-21T02:30:06;3.60;99.90
10911;DHT22;5508;49.150;11.030;2022-11-21T02:33:09;3.60;99.90
10911;DHT22;5508;49.150;11.030;2022-11-21T02:39:38;3.60;99.90
10911;DHT22;5508;49.150;11.030;2022-11-21T02:45:54;3.60;99.90
10911;DHT22;5508;49.150;11.030;2022-11-21T02:48:55;3.60;99.90
10911;DHT22;5508;49.150;11.030;2022-11-21T02:51:57;3.60;99.90
10911;DHT22;5508;49.150;11.030;2022-11-21T02:54:57;3.60;99.90
10911;DHT22;5508;49.150;11.030;2022-11-21T02:57:58;3.60;99.90
10911;DHT22;5508;49.150;11.030;2022-11-21T03:00:58;3.70;99.90
10911;DHT22;5508;49.150;11.030;2022-11-21T03:03:59;3.70;99.90
10911;DHT22;5508;49.150;11.030;2022-11-21T03:07:00;3.70;99.90
10911;DHT22;5508;49.150;11.030;2022-11-21T03:10:00;3.80;99.90
10911;DHT22;5508;49.150;11.030;2022-11-21T03:13:01;3.70;99.90
10911;DHT22;5508;49.150;11.030;2022-11-21T03:16:02;3.70;99.90
10911;DHT22;5508;49.150;11.030;2022-11-21T03:19:02;3.70;99.90
10911;DHT22;5508;49.150;11.030;2022-11-21T03:22:03;3.70;99.90
10911;DHT22;5508;49.150;11.030;2022-11-21T03:25:04;3.60;99.90
10911;DHT22;5508;49.150;11.030;2022-11-21T03:28:05;3.60;99.90
10911;DHT22;5508;49.150;11.030;2022-11-21T03:31:05;3.70;99.90
10911;DHT22;5508;49.150;11.030;2022-11-21T03:34:06;3.70;99.90
10911;DHT22;5508;49.150;11.030;2022-11-21T03:37:07;3.60;99.90
10911;DHT22;5508;49.150;11.030;2022-11-21T03:40:08;3.60;99.90
10911;DHT22;5508;49.150;11.030;2022-11-21T03:43:09;3.70;99.90
10911;DHT22;5508;49.150;11.030;2022-11-21T03:46:09;3.70;99.90
10911;DHT22;5508;49.150;11.030;2022-11-21T03:49:10;3.70;99.90
10911;DHT22;5508;49.150;11.030;2022-11-21T03:52:11;3.80;99.90
10911;DHT22;5508;49.150;11.030;2022-11-21T03:55:11;3.80;99.90
10911;DHT22;5508;49.150;11.030;2022-11-21T03:58:12;3.80;99.90
10911;DHT22;5508;49.150;11.030;2022-11-21T04:01:12;3.80;99.90
10911;DHT22;5508;49.150;11.030;2022-11-21T04:04:14;3.80;99.90
10911;DHT22;5508;49.150;11.030;2022-11-21T04:07:14;3.60;99.90
10911;DHT22;5508;49.150;11.030;2022-11-21T04:10:15;3.60;99.90
10911;DHT22;5508;49.150;11.030;2022-11-21T04:13:16;3.50;99.90
10911;DHT22;5508;49.150;11.030;2022-11-21T04:16:17;3.40;99.90
10911;DHT22;5508;49.150;11.030;2022-11-21T04:19:18;3.40;99.90
10911;DHT22;5508;49.150;11.030;2022-11-21T04:22:18;3.40;99.90
10911;DHT22;5508;49.150;11.030;2022-11-21T04:25:19;3.40;99.90
10911;DHT22;5508;49.150;11.030;2022-11-21T04:28:20;3.50;99.90
10911;DHT22;5508;49.150;11.030;2022-11-21T04:31:21;3.50;99.90
10911;DHT22;5508;49.150;11.030;2022-11-21T04:34:22;3.60;99.90
10911;DHT22;5508;49.150;11.030;2022-11-21T04:37:22;3.50;99.90
10911;DHT22;5508;49.150;11.030;2022-11-21T04:40:23;3.50;99.90
10911;DHT22;5508;49.150;11.030;2022-11-21T04:43:23;3.50;99.90
10911;DHT22;5508;49.150;11.030;2022-11-21T04:46:24;3.40;99.90
10911;DHT22;5508;49.150;11.030;2022-11-21T04:49:25;3.30;99.90
10911;DHT22;5508;49.150;11.030;2022-11-21T04:52:25;3.30;99.90
10911;DHT22;5508;49.150;11.030;2022-11-21T04:55:30;3.30;99.90
10911;DHT22;5508;49.150;11.030;2022-11-21T04:58:31;3.20;99.90
10911;DHT22;5508;49.150;11.030;2022-11-21T05:01:32;3.20;99.90
10911;DHT22;5508;49.150;11.030;2022-11-21T05:04:32;3.10;99.90
10911;DHT22;5508;49.150;11.030;2022-11-21T05:07:33;3.10;99.90
10911;DHT22;5508;49.150;11.030;2022-11-21T05:10:33;3.10;99.90
10911;DHT22;5508;49.150;11.030;2022-11-21T05:13:54;3.10;99.90
10911;DHT22;5508;49.150;11.030;2022-11-21T05:16:54;3.00;99.90
10911;DHT22;5508;49.150;11.030;2022-11-21T05:19:55;3.00;99.90
10911;DHT22;5508;49.150;11.030;2022-11-21T05:22:56;2.90;99.90
10911;DHT22;5508;49.150;11.030;2022-11-21T05:25:56;2.80;99.90
10911;DHT22;5508;49.150;11.030;2022-11-21T05:28:57;2.80;99.90
10911;DHT22;5508;49.150;11.030;2022-11-21T05:31:58;2.70;99.90
10911;DHT22;5508;49.150;11.030;2022-11-21T05:34:58;2.60;99.90
10911;DHT22;5508;49.150;11.030;2022-11-21T05:37:59;2.60;99.90
10911;DHT22;5508;49.150;11.030;2022-11-21T05:40:59;2.60;99.90
10911;DHT22;5508;49.150;11.030;2022-11-21T05:44:00;2.70;99.90
10911;DHT22;5508;49.150;11.030;2022-11-21T05:47:00;2.60;99.90
10911;DHT22;5508;49.150;11.030;2022-11-21T05:50:01;2.60;99.90
10911;DHT22;5508;49.150;11.030;2022-11-21T05:53:05;2.60;99.90
10911;DHT22;5508;49.150;11.030;2022-11-21T05:56:08;2.60;99.90
10911;DHT22;5508;49.150;11.030;2022-11-21T05:59:11;2.70;99.90
10911;DHT22;5508;49.150;11.030;2022-11-21T06:02:12;2.60;99.90
10911;DHT22;5508;49.150;11.030;2022-11-21T06:05:31;2.60;99.90
10911;DHT22;5508;49.150;11.030;2022-11-21T06:08:34;2.70;99.90
10911;DHT22;5508;49.150;11.030;2022-11-21T06:11:35;2.70;99.90
10911;DHT22;5508;49.150;11.030;2022-11-21T06:14:35;2.60;99.90
10911;DHT22;5508;49.150;11.030;2022-11-21T06:17:36;2.60;99.90
10911;DHT22;5508;49.150;11.030;2022-11-21T06:20:37;2.60;99.90
10911;DHT22;5508;49.150;11.030;2022-11-21T06:23:37;2.50;99.90
10911;DHT22;5508;49.150;11.030;2022-11-21T06:26:38;2.50;99.90
10911;DHT22;5508;49.150;11.030;2022-11-21T06:29:38;2.50;99.90
10911;DHT22;5508;49.150;11.030;2022-11-21T06:32:39;2.50;99.90
10911;DHT22;5508;49.150;11.030;2022-11-21T06:35:39;2.50;99.90
10911;DHT22;5508;49.150;11.030;2022-11-21T06:38:40;2.50;99.90
10911;DHT22;5508;49.150;11.030;2022-11-21T06:41:41;2.60;99.90
10911;DHT22;5508;49.150;11.030;2022-11-21T06:44:41;2.50;99.90
10911;DHT22;5508;49.150;11.030;2022-11-21T06:47:42;2.50;99.90
10911;DHT22;5508;49.150;11.030;2022-11-21T06:50:42;2.60;99.90
10911;DHT22;5508;49.150;11.030;2022-11-21T06:53:43;2.60;99.90
10911;DHT22;5508;49.150;11.030;2022-11-21T06:56:44;2.60;99.90
10911;DHT22;5508;49.150;11.030;2022-11-21T06:59:45;2.60;99.90
10911;DHT22;5508;49.150;11.030;2022-11-21T07:02:45;2.70;99.90
10911;DHT22;5508;49.150;11.030;2022-11-21T07:05:46;2.70;99.90
10911;DHT22;5508;49.150;11.030;2022-11-21T07:08:50;2.80;99.90
10911;DHT22;5508;49.150;11.030;2022-11-21T07:11:51;2.80;99.90
10911;DHT22;5508;49.150;11.030;2022-11-21T07:14:51;2.90;99.90
10911;DHT22;5508;49.150;11.030;2022-11-21T07:17:52;2.90;99.90
10911;DHT22;5508;49.150;11.030;2022-11-21T07:20:57;2.90;99.90
10911;DHT22;5508;49.150;11.030;2022-11-21T07:23:58;2.90;99.90
10911;DHT22;5508;49.150;11.030;2022-11-21T07:27:00;2.80;99.90
10911;DHT22;5508;49.150;11.030;2022-11-21T07:30:01;2.70;99.90
10911;DHT22;5508;49.150;11.030;2022-11-21T07:33:04;2.70;99.90
10911;DHT22;5508;49.150;11.030;2022-11-21T07:36:05;2.70;99.90
10911;DHT22;5508;49.150;11.030;2022-11-21T07:39:06;2.70;99.90
10911;DHT22;5508;49.150;11.030;2022-11-21T07:42:07;2.70;99.90
10911;DHT22;5508;49.150;11.030;2022-11-21T07:45:08;2.70;99.90
10911;DHT22;5508;49.150;11.030;2022-11-21T07:48:09;2.80;99.90
10911;DHT22;5508;49.150;11.030;2022-11-21T07:51:09;2.80;99.90
10911;DHT22;5508;49.150;11.030;2022-11-21T07:54:10;2.80;99.90
10911;DHT22;5508;49.150;11.030;2022-11-21T07:57:11;2.90;99.90
10911;DHT22;5508;49.150;11.030;2022-11-21T08:00:12;2.90;99.90
10911;DHT22;5508;49.150;11.030;2022-11-21T08:03:12;2.90;99.90
10911;DHT22;5508;49.150;11.030;2022-11-21T08:06:13;2.90;99.90
10911;DHT22;5508;49.150;11.030;2022-11-21T08:09:14;2.90;99.90
10911;DHT22;5508;49.150;11.030;2022-11-21T08:12:15;3.00;99.90
10911;DHT22;5508;49.150;11.030;2022-11-21T08:15:15;3.10;99.90
10911;DHT22;5508;49.150;11.030;2022-11-21T08:18:17;3.10;99.90
10911;DHT22;5508;49.150;11.030;2022-11-21T08:21:20;3.30;99.90
10911;DHT22;5508;49.150;11.030;2022-11-21T08:24:20;3.40;99.90
10911;DHT22;5508;49.150;11.030;2022-11-21T08:27:22;3.40;99.90
10911;DHT22;5508;49.150;11.030;2022-11-21T08:30:24;3.60;99.90
10911;DHT22;5508;49.150;11.030;2022-11-21T08:33:24;3.70;99.90
10911;DHT22;5508;49.150;11.030;2022-11-21T08:36:25;3.80;99.90
10911;DHT22;5508;49.150;11.030;2022-11-21T08:39:26;3.90;99.90
10911;DHT22;5508;49.150;11.030;2022-11-21T08:42:27;4.10;99.90
10911;DHT22;5508;49.150;11.030;2022-11-21T08:45:28;4.30;99.90
10911;DHT22;5508;49.150;11.030;2022-11-21T08:48:28;4.30;99.90
10911;DHT22;5508;49.150;11.030;2022-11-21T08:51:29;4.60;99.90
10911;DHT22;5508;49.150;11.030;2022-11-21T08:54:30;4.70;99.90
10911;DHT22;5508;49.150;11.030;2022-11-21T08:57:30;4.70;99.90
10911;DHT22;5508;49.150;11.030;2022-11-21T09:00:31;4.70;99.90
10911;DHT22;5508;49.150;11.030;2022-11-21T09:03:31;4.70;99.90
10911;DHT22;5508;49.150;11.030;2022-11-21T09:06:32;4.80;99.90
10911;DHT22;5508;49.150;11.030;2022-11-21T09:09:33;4.70;99.90
10911;DHT22;5508;49.150;11.030;2022-11-21T09:12:34;4.60;99.90
10911;DHT22;5508;49.150;11.030;2022-11-21T09:15:34;4.50;99.90
10911;DHT22;5508;49.150;11.030;2022-11-21T09:18:53;4.50;99.90
10911;DHT22;5508;49.150;11.030;2022-11-21T09:21:54;4.50;99.90
10911;DHT22;5508;49.150;11.030;2022-11-21T09:24:54;4.50;99.90
10911;DHT22;5508;49.150;11.030;2022-11-21T09:27:58;4.50;99.90
10911;DHT22;5508;49.150;11.030;2022-11-21T09:31:01;4.80;99.90
10911;DHT22;5508;49.150;11.030;2022-11-21T09:34:02;5.00;99.90
10911;DHT22;5508;49.150;11.030;2022-11-21T09:37:02;5.20;99.90
10911;DHT22;5508;49.150;11.030;2022-11-21T09:40:03;5.30;99.90
10911;DHT22;5508;49.150;11.030;2022-11-21T09:46:31;5.60;99.90
10911;DHT22;5508;49.150;11.030;2022-11-21T09:49:39;5.60;99.90
10911;DHT22;5508;49.150;11.030;2022-11-21T10:02:24;5.40;99.90
10911;DHT22;5508;49.150;11.030;2022-11-21T10:05:35;5.40;99.90
10911;DHT22;5508;49.150;11.030;2022-11-21T10:16:13;5.10;99.90
10911;DHT22;5508;49.150;11.030;2022-11-21T10:25:36;5.20;99.90
10911;DHT22;5508;49.150;11.030;2022-11-21T10:28:50;5.20;99.90
10911;DHT22;5508;49.150;11.030;2022-11-21T10:31:54;5.20;99.90
10911;DHT22;5508;49.150;11.030;2022-11-21T10:35:10;5.30;99.90
10911;DHT22;5508;49.150;11.030;2022-11-21T10:38:23;5.10;99.90
10911;DHT22;5508;49.150;11.030;2022-11-21T10:44:46;5.10;99.90
10911;DHT22;5508;49.150;11.030;2022-11-21T10:48:07;5.10;99.90
10911;DHT22;5508;49.150;11.030;2022-11-21T10:54:13;5.20;99.90
10911;DHT22;5508;49.150;11.030;2022-11-21T10:57:56;5.10;99.90
10911;DHT22;5508;49.150;11.030;2022-11-21T11:00:56;5.40;99.90
10911;DHT22;5508;49.150;11.030;2022-11-21T11:04:17;5.40;99.90
10911;DHT22;5508;49.150;11.030;2022-11-21T11:07:24;5.40;99.90
10911;DHT22;5508;49.150;11.030;2022-11-21T11:10:25;5.50;99.90
10911;DHT22;5508;49.150;11.030;2022-11-21T11:13:26;5.50;99.90
10911;DHT22;5508;49.150;11.030;2022-11-21T11:16:34;5.60;99.90
10911;DHT22;5508;49.150;11.030;2022-11-21T11:19:35;5.80;99.90
10911;DHT22;5508;49.150;11.030;2022-11-21T11:22:36;5.90;99.40
10911;DHT22;5508;49.150;11.030;2022-11-21T11:25:37;6.30;98.20
10911;DHT22;5508;49.150;11.030;2022-11-21T11:28:38;6.70;97.50
10911;DHT22;5508;49.150;11.030;2022-11-21T11:32:22;7.00;95.10
10911;DHT22;5508;49.150;11.030;2022-11-21T11:38:13;6.50;92.30
10911;DHT22;5508;49.150;11.030;2022-11-21T11:49:47;5.60;91.60
10911;DHT22;5508;49.150;11.030;2022-11-21T11:53:26;5.50;91.00
10911;DHT22;5508;49.150;11.030;2022-11-21T11:56:34;5.60;89.70
10911;DHT22;5508;49.150;11.030;2022-11-21T11:59:47;5.70;89.90
10911;DHT22;5508;49.150;11.030;2022-11-21T12:02:55;5.70;90.60
10911;DHT22;5508;49.150;11.030;2022-11-21T12:06:08;5.50;88.00
10911;DHT22;5508;49.150;11.030;2022-11-21T12:12:39;5.30;90.70
10911;DHT22;5508;49.150;11.030;2022-11-21T12:15:46;5.20;88.60
10911;DHT22;5508;49.150;11.030;2022-11-21T12:19:02;5.20;89.20
10911;DHT22;5508;49.150;11.030;2022-11-21T12:22:06;5.20;89.00
10911;DHT22;5508;49.150;11.030;2022-11-21T12:25:11;5.30;88.20
10911;DHT22;5508;49.150;11.030;2022-11-21T12:28:27;5.40;89.20
10911;DHT22;5508;49.150;11.030;2022-11-21T12:35:02;5.40;91.90
10911;DHT22;5508;49.150;11.030;2022-11-21T12:41:42;5.40;90.10
10911;DHT22;5508;49.150;11.030;2022-11-21T12:45:28;5.60;89.90
10911;DHT22;5508;49.150;11.030;2022-11-21T12:52:35;6.00;87.40
10911;DHT22;5508;49.150;11.030;2022-11-21T12:56:27;6.30;85.90
10911;DHT22;5508;49.150;11.030;2022-11-21T12:59:30;6.20;85.80
10911;DHT22;5508;49.150;11.030;2022-11-21T13:02:36;6.10;84.00
10911;DHT22;5508;49.150;11.030;2022-11-21T13:05:44;6.10;85.80
10911;DHT22;5508;49.150;11.030;2022-11-21T13:08:47;5.90;84.50
10911;DHT22;5508;49.150;11.030;2022-11-21T13:12:05;5.80;81.50
10911;DHT22;5508;49.150;11.030;2022-11-21T13:18:30;5.70;85.60
10911;DHT22;5508;49.150;11.030;2022-11-21T13:21:47;5.60;85.30
10911;DHT22;5508;49.150;11.030;2022-11-21T13:27:48;5.60;84.80
10911;DHT22;5508;49.150;11.030;2022-11-21T13:30:50;5.60;85.20
10911;DHT22;5508;49.150;11.030;2022-11-21T13:33:51;5.60;85.60
10911;DHT22;5508;49.150;11.030;2022-11-21T13:36:52;5.50;85.80
10911;DHT22;5508;49.150;11.030;2022-11-21T13:43:26;5.40;86.60
10911;DHT22;5508;49.150;11.030;2022-11-21T14:00:22;5.20;88.90
10911;DHT22;5508;49.150;11.030;2022-11-21T14:07:22;4.90;92.30
10911;DHT22;5508;49.150;11.030;2022-11-21T14:13:31;4.80;92.20
10911;DHT22;5508;49.150;11.030;2022-11-21T14:16:38;4.80;93.70
10911;DHT22;5508;49.150;11.030;2022-11-21T14:19:41;4.80;94.30
10911;DHT22;5508;49.150;11.030;2022-11-21T14:23:01;4.80;94.80
10911;DHT22;5508;49.150;11.030;2022-11-21T14:26:11;4.70;93.70
10911;DHT22;5508;49.150;11.030;2022-11-21T14:29:30;4.70;95.30
10911;DHT22;5508;49.150;11.030;2022-11-21T14:32:36;4.60;95.00
10911;DHT22;5508;49.150;11.030;2022-11-21T14:35:38;4.50;96.30
10911;DHT22;5508;49.150;11.030;2022-11-21T14:41:47;4.30;99.80
10911;DHT22;5508;49.150;11.030;2022-11-21T14:45:13;4.10;99.90
10911;DHT22;5508;49.150;11.030;2022-11-21T14:48:14;3.90;99.90
10911;DHT22;5508;49.150;11.030;2022-11-21T14:51:17;3.80;99.90
10911;DHT22;5508;49.150;11.030;2022-11-21T14:54:21;3.70;99.90
10911;DHT22;5508;49.150;11.030;2022-11-21T14:57:39;3.70;99.90
10911;DHT22;5508;49.150;11.030;2022-11-21T15:01:00;3.60;99.90
10911;DHT22;5508;49.150;11.030;2022-11-21T15:04:04;3.50;99.90
10911;DHT22;5508;49.150;11.030;2022-11-21T15:07:20;3.30;99.90
10911;DHT22;5508;49.150;11.030;2022-11-21T15:10:22;3.20;99.90
10911;DHT22;5508;49.150;11.030;2022-11-21T15:13:25;3.00;99.90
10911;DHT22;5508;49.150;11.030;2022-11-21T15:16:30;2.90;99.90
10911;DHT22;5508;49.150;11.030;2022-11-21T15:19:31;2.90;99.90
10911;DHT22;5508;49.150;11.030;2022-11-21T15:22:36;2.70;99.90
10911;DHT22;5508;49.150;11.030;2022-11-21T15:25:45;2.70;99.90
10911;DHT22;5508;49.150;11.030;2022-11-21T15:28:54;2.50;99.90
10911;DHT22;5508;49.150;11.030;2022-11-21T15:32:24;2.30;99.90
10911;DHT22;5508;49.150;11.030;2022-11-21T15:38:43;2.10;99.90
10911;DHT22;5508;49.150;11.030;2022-11-21T15:41:46;2.10;99.90
10911;DHT22;5508;49.150;11.030;2022-11-21T15:45:00;2.00;99.90
10911;DHT22;5508;49.150;11.030;2022-11-21T15:48:01;1.90;99.90
10911;DHT22;5508;49.150;11.030;2022-11-21T15:51:02;1.70;99.90
10911;DHT22;5508;49.150;11.030;2022-11-21T15:54:04;1.50;99.90
10911;DHT22;5508;49.150;11.030;2022-11-21T15:57:05;1.40;99.90
10911;DHT22;5508;49.150;11.030;2022-11-21T16:00:06;1.30;99.90
10911;DHT22;5508;49.150;11.030;2022-11-21T16:03:07;1.20;99.90
10911;DHT22;5508;49.150;11.030;2022-11-21T16:06:08;1.10;99.90
10911;DHT22;5508;49.150;11.030;2022-11-21T16:09:08;1.00;99.90
10911;DHT22;5508;49.150;11.030;2022-11-21T16:12:09;1.00;99.90
10911;DHT22;5508;49.150;11.030;2022-11-21T16:15:10;0.90;99.90
10911;DHT22;5508;49.150;11.030;2022-11-21T16:18:10;0.90;99.90
10911;DHT22;5508;49.150;11.030;2022-11-21T16:21:11;0.80;99.90
10911;DHT22;5508;49.150;11.030;2022-11-21T16:24:12;0.80;99.90
10911;DHT22;5508;49.150;11.030;2022-11-21T16:27:12;0.80;99.90
10911;DHT22;5508;49.150;11.030;2022-11-21T16:30:13;0.70;99.90
10911;DHT22;5508;49.150;11.030;2022-11-21T16:33:14;0.60;99.90
10911;DHT22;5508;49.150;11.030;2022-11-21T16:36:27;0.50;99.90
10911;DHT22;5508;49.150;11.030;2022-11-21T16:39:28;0.40;99.90
10911;DHT22;5508;49.150;11.030;2022-11-21T16:42:29;0.40;99.90
10911;DHT22;5508;49.150;11.030;2022-11-21T16:45:31;0.30;99.90
10911;DHT22;5508;49.150;11.030;2022-11-21T16:48:32;0.20;99.90
10911;DHT22;5508;49.150;11.030;2022-11-21T16:51:32;0.20;99.90
10911;DHT22;5508;49.150;11.030;2022-11-21T16:54:33;0.10;99.90
10911;DHT22;5508;49.150;11.030;2022-11-21T16:57:34;0.10;99.90
10911;DHT22;5508;49.150;11.030;2022-11-21T17:00:35;0.00;99.90
10911;DHT22;5508;49.150;11.030;2022-11-21T17:03:37;0.00;99.90
10911;DHT22;5508;49.150;11.030;2022-11-21T17:06:38;-0.10;99.90
10911;DHT22;5508;49.150;11.030;2022-11-21T17:09:38;-0.10;99.90
10911;DHT22;5508;49.150;11.030;2022-11-21T17:12:40;-0.20;99.90
10911;DHT22;5508;49.150;11.030;2022-11-21T17:15:41;-0.20;99.90
10911;DHT22;5508;49.150;11.030;2022-11-21T17:18:42;-0.30;99.90
10911;DHT22;5508;49.150;11.030;2022-11-21T17:21:43;-0.30;99.90
10911;DHT22;5508;49.150;11.030;2022-11-21T17:24:44;-0.40;99.90
10911;DHT22;5508;49.150;11.030;2022-11-21T17:27:44;-0.40;99.90
10911;DHT22;5508;49.150;11.030;2022-11-21T17:30:45;-0.50;99.90
10911;DHT22;5508;49.150;11.030;2022-11-21T17:33:45;-0.60;99.90
10911;DHT22;5508;49.150;11.030;2022-11-21T17:36:50;-0.60;99.90
10911;DHT22;5508;49.150;11.030;2022-11-21T17:39:51;-0.60;99.90
10911;DHT22;5508;49.150;11.030;2022-11-21T17:42:51;-0.60;99.90
10911;DHT22;5508;49.150;11.030;2022-11-21T17:45:57;-0.70;99.90
10911;DHT22;5508;49.150;11.030;2022-11-21T17:48:58;-0.70;99.90
10911;DHT22;5508;49.150;11.030;2022-11-21T17:51:58;-0.70;99.90
10911;DHT22;5508;49.150;11.030;2022-11-21T17:54:59;-0.80;99.90
10911;DHT22;5508;49.150;11.030;2022-11-21T17:57:59;-0.80;99.90
10911;DHT22;5508;49.150;11.030;2022-11-21T18:01:02;-0.80;99.90
10911;DHT22;5508;49.150;11.030;2022-11-21T18:04:04;-0.90;99.90
10911;DHT22;5508;49.150;11.030;2022-11-21T18:07:05;-0.90;99.90
10911;DHT22;5508;49.150;11.030;2022-11-21T18:10:06;-0.90;99.90
10911;DHT22;5508;49.150;11.030;2022-11-21T18:13:07;-0.80;99.90
10911;DHT22;5508;49.150;11.030;2022-11-21T18:16:11;-0.90;99.90
10911;DHT22;5508;49.150;11.030;2022-11-21T18:19:12;-0.90;99.90
10911;DHT22;5508;49.150;11.030;2022-11-21T18:22:13;-1.00;99.90
10911;DHT22;5508;49.150;11.030;2022-11-21T18:25:14;-1.00;99.90
10911;DHT22;5508;49.150;11.030;2022-11-21T18:28:14;-1.00;99.90
10911;DHT22;5508;49.150;11.030;2022-11-21T18:31:17;-1.10;99.90
10911;DHT22;5508;49.150;11.030;2022-11-21T18:34:18;-1.10;99.90
10911;DHT22;5508;49.150;11.030;2022-11-21T18:37:19;-1.20;99.90
10911;DHT22;5508;49.150;11.030;2022-11-21T18:40:19;-1.20;99.90
10911;DHT22;5508;49.150;11.030;2022-11-21T18:43:20;-1.20;99.90
10911;DHT22;5508;49.150;11.030;2022-11-21T18:46:21;-1.20;99.90
10911;DHT22;5508;49.150;11.030;2022-11-21T18:49:22;-1.20;99.90
10911;DHT22;5508;49.150;11.030;2022-11-21T18:52:23;-1.20;99.90
10911;DHT22;5508;49.150;11.030;2022-11-21T18:55:24;-1.20;99.90
10911;DHT22;5508;49.150;11.030;2022-11-21T18:58:26;-1.20;99.90
10911;DHT22;5508;49.150;11.030;2022-11-21T19:01:28;-1.20;99.90
10911;DHT22;5508;49.150;11.030;2022-11-21T19:04:29;-1.20;99.90
10911;DHT22;5508;49.150;11.030;2022-11-21T19:07:29;-1.20;99.90
10911;DHT22;5508;49.150;11.030;2022-11-21T19:10:30;-0.90;99.90
10911;DHT22;5508;49.150;11.030;2022-11-21T19:13:31;-0.70;99.90
10911;DHT22;5508;49.150;11.030;2022-11-21T19:16:32;-0.50;99.90
10911;DHT22;5508;49.150;11.030;2022-11-21T19:19:33;-0.40;99.90
10911;DHT22;5508;49.150;11.030;2022-11-21T19:22:34;-0.30;99.90
10911;DHT22;5508;49.150;11.030;2022-11-21T19:25:34;-0.10;99.90
10911;DHT22;5508;49.150;11.030;2022-11-21T19:28:35;0.00;99.90
10911;DHT22;5508;49.150;11.030;2022-11-21T19:31:36;0.10;99.90
10911;DHT22;5508;49.150;11.030;2022-11-21T19:34:37;-0.10;99.90
10911;DHT22;5508;49.150;11.030;2022-11-21T19:37:37;-0.30;99.90
10911;DHT22;5508;49.150;11.030;2022-11-21T19:40:38;-0.50;99.90
10911;DHT22;5508;49.150;11.030;2022-11-21T19:43:58;-0.60;99.90
10911;DHT22;5508;49.150;11.030;2022-11-21T19:46:59;-0.60;99.90
10911;DHT22;5508;49.150;11.030;2022-11-21T19:50:00;-0.60;99.90
10911;DHT22;5508;49.150;11.030;2022-11-21T19:53:00;-0.60;99.90
10911;DHT22;5508;49.150;11.030;2022-11-21T19:56:30;-0.50;99.90
10911;DHT22;5508;49.150;11.030;2022-11-21T19:59:31;-0.40;99.90
10911;DHT22;5508;49.150;11.030;2022-11-21T20:02:32;-0.30;99.90
10911;DHT22;5508;49.150;11.030;2022-11-21T20:05:32;-0.30;99.90
10911;DHT22;5508;49.150;11.030;2022-11-21T20:08:33;-0.30;99.90
10911;DHT22;5508;49.150;11.030;2022-11-21T20:11:35;-0.30;99.90
10911;DHT22;5508;49.150;11.030;2022-11-21T20:14:36;-0.30;99.90
10911;DHT22;5508;49.150;11.030;2022-11-21T20:17:36;-0.20;99.90
10911;DHT22;5508;49.150;11.030;2022-11-21T20:20:37;-0.20;99.90
10911;DHT22;5508;49.150;11.030;2022-11-21T20:23:38;-0.10;99.90
10911;DHT22;5508;49.150;11.030;2022-11-21T20:26:39;-0.20;99.90
10911;DHT22;5508;49.150;11.030;2022-11-21T20:29:40;-0.10;99.90
10911;DHT22;5508;49.150;11.030;2022-11-21T20:32:41;0.00;99.90
10911;DHT22;5508;49.150;11.030;2022-11-21T20:35:41;0.00;99.90
10911;DHT22;5508;49.150;11.030;2022-11-21T20:38:48;0.20;99.90
10911;DHT22;5508;49.150;11.030;2022-11-21T20:41:49;0.20;99.90
10911;DHT22;5508;49.150;11.030;2022-11-21T20:44:49;0.20;99.90
10911;DHT22;5508;49.150;11.030;2022-11-21T20:47:50;0.30;99.90
10911;DHT22;5508;49.150;11.030;2022-11-21T20:50:52;0.40;99.90
10911;DHT22;5508;49.150;11.030;2022-11-21T20:53:52;0.50;99.90
10911;DHT22;5508;49.150;11.030;2022-11-21T20:56:53;0.60;99.90
10911;DHT22;5508;49.150;11.030;2022-11-21T20:59:54;0.80;99.90
10911;DHT22;5508;49.150;11.030;2022-11-21T21:02:54;0.90;99.90
10911;DHT22;5508;49.150;11.030;2022-11-21T21:05:56;0.90;99.90
10911;DHT22;5508;49.150;11.030;2022-11-21T21:08:57;0.90;99.90
10911;DHT22;5508;49.150;11.030;2022-11-21T21:11:58;0.80;99.90
10911;DHT22;5508;49.150;11.030;2022-11-21T21:14:58;0.70;99.90